createdAt,value
2023-02-19T00:00:50.173Z,9.98
2023-02-19T00:03:20.018Z,9.98
2023-02-19T00:05:49.923Z,9.94
2023-02-19T00:08:19.878Z,9.87
2023-02-19T00:10:49.713Z,9.92
2023-02-19T00:13:22.466Z,9.96
2023-02-19T00:15:52.340Z,9.96
2023-02-19T00:18:22.251Z,9.91
2023-02-19T00:20:52.378Z,9.91
2023-02-19T00:23:22.392Z,9.95
2023-02-19T00:25:52.320Z,9.99
2023-02-19T00:28:25.638Z,9.99
2023-02-19T00:30:55.554Z,9.97
2023-02-19T00:33:25.405Z,9.97
2023-02-19T00:35:55.285Z,9.99
2023-02-19T00:38:25.139Z,9.96
2023-02-19T00:40:55.140Z,9.99
2023-02-19T00:43:28.680Z,10.04
2023-02-19T00:45:58.583Z,10.08
2023-02-19T00:48:28.478Z,10.08
2023-02-19T00:50:58.352Z,10.08
2023-02-19T00:53:28.222Z,10.12
2023-02-19T00:55:58.079Z,10.10
2023-02-19T00:58:30.563Z,10.10
2023-02-19T01:01:00.768Z,10.12
2023-02-19T01:03:31.777Z,10.09
2023-02-19T01:06:01.696Z,10.10
2023-02-19T01:08:33.000Z,10.05
2023-02-19T01:11:05.267Z,10.16
2023-02-19T01:13:38.278Z,10.15
2023-02-19T01:16:09.160Z,10.07
2023-02-19T01:18:39.649Z,10.09
2023-02-19T01:21:11.518Z,10.17
2023-02-19T01:23:42.732Z,10.16
2023-02-19T01:26:17.045Z,10.03
2023-02-19T01:28:49.768Z,9.95
2023-02-19T01:31:21.957Z,10.00
2023-02-19T01:33:54.814Z,10.00
2023-02-19T01:36:25.150Z,10.00
2023-02-19T01:38:55.210Z,10.01
2023-02-19T01:41:27.757Z,9.95
2023-02-19T01:44:04.467Z,9.96
2023-02-19T01:46:35.360Z,9.94
2023-02-19T01:49:10.210Z,9.91
2023-02-19T01:51:44.881Z,10.02
2023-02-19T01:54:19.280Z,10.05
2023-02-19T01:56:52.733Z,10.01
2023-02-19T01:59:25.668Z,9.99
2023-02-19T02:01:55.647Z,10.01
2023-02-19T02:04:25.730Z,10.00
2023-02-19T02:06:57.788Z,10.03
2023-02-19T02:09:43.837Z,10.06
2023-02-19T02:12:14.230Z,10.08
2023-02-19T02:14:50.415Z,10.10
2023-02-19T02:17:29.417Z,10.05
2023-02-19T02:20:44.595Z,10.04
2023-02-19T02:23:26.806Z,10.03
2023-02-19T02:26:09.965Z,9.97
2023-02-19T02:29:15.340Z,9.98
2023-02-19T02:31:56.954Z,9.99
2023-02-19T02:34:33.486Z,10.02
2023-02-19T02:37:04.079Z,9.96
2023-02-19T02:39:35.473Z,10.06
2023-02-19T02:42:17.929Z,10.06
2023-02-19T02:45:09.228Z,9.95
2023-02-19T02:47:53.058Z,9.97
2023-02-19T02:50:28.727Z,9.94
2023-02-19T02:53:17.339Z,9.89
2023-02-19T02:55:51.950Z,9.82
2023-02-19T02:58:27.402Z,9.82
2023-02-19T03:01:17.949Z,9.80
2023-02-19T03:03:57.473Z,9.76
2023-02-19T03:06:33.095Z,9.71
2023-02-19T03:09:11.987Z,9.66
2023-02-19T03:12:00.701Z,9.71
2023-02-19T03:14:51.033Z,9.70
2023-02-19T03:17:40.249Z,9.68
2023-02-19T03:20:18.746Z,9.69
2023-02-19T03:22:51.234Z,9.63
2023-02-19T03:25:36.980Z,9.70
2023-02-19T03:28:11.502Z,9.69
2023-02-19T03:30:47.616Z,9.66
2023-02-19T03:33:21.477Z,9.68
2023-02-19T03:35:59.892Z,9.68
2023-02-19T03:38:42.285Z,9.68
2023-02-19T03:41:21.629Z,9.67
2023-02-19T03:44:02.890Z,9.70
2023-02-19T03:46:42.754Z,9.74
2023-02-19T03:49:23.874Z,9.75
2023-02-19T03:52:05.236Z,9.68
2023-02-19T03:54:41.462Z,9.71
2023-02-19T03:57:21.653Z,9.72
2023-02-19T03:59:58.673Z,9.70
2023-02-19T04:02:37.853Z,9.70
2023-02-19T04:05:14.297Z,9.72
2023-02-19T04:07:52.817Z,9.71
2023-02-19T04:10:29.157Z,9.67
2023-02-19T04:13:07.308Z,9.65
2023-02-19T04:15:38.356Z,9.59
2023-02-19T04:18:15.419Z,9.55
2023-02-19T04:20:49.075Z,9.56
2023-02-19T04:23:26.737Z,9.53
2023-02-19T04:26:02.598Z,9.55
2023-02-19T04:28:33.124Z,9.50
2023-02-19T04:31:03.857Z,9.53
2023-02-19T04:33:33.859Z,9.57
2023-02-19T04:36:04.103Z,9.59
2023-02-19T04:38:36.596Z,9.61
2023-02-19T04:41:06.681Z,9.56
2023-02-19T04:43:36.543Z,9.55
2023-02-19T04:46:07.081Z,9.53
2023-02-19T04:48:36.989Z,9.41
2023-02-19T04:51:09.579Z,9.35
2023-02-19T04:53:42.814Z,9.27
2023-02-19T04:56:15.452Z,9.27
2023-02-19T04:58:47.005Z,9.20
2023-02-19T05:01:17.163Z,9.27
2023-02-19T05:03:47.445Z,9.24
2023-02-19T05:06:17.653Z,9.28
2023-02-19T05:08:50.087Z,9.22
2023-02-19T05:11:20.150Z,9.22
2023-02-19T05:13:49.987Z,9.23
2023-02-19T05:16:20.462Z,9.28
2023-02-19T05:18:50.486Z,9.20
2023-02-19T05:21:20.374Z,9.23
2023-02-19T05:23:52.771Z,9.15
2023-02-19T05:26:26.824Z,9.21
2023-02-19T05:28:57.384Z,9.12
2023-02-19T05:31:27.356Z,8.98
2023-02-19T05:33:58.038Z,9.11
2023-02-19T05:36:28.377Z,9.04
2023-02-19T05:39:01.188Z,9.07
2023-02-19T05:41:32.963Z,9.09
2023-02-19T05:44:02.913Z,9.12
2023-02-19T05:46:33.572Z,9.12
2023-02-19T05:49:03.445Z,9.10
2023-02-19T05:51:33.318Z,9.06
2023-02-19T05:54:05.966Z,9.14
2023-02-19T05:56:37.833Z,9.06
2023-02-19T05:59:10.191Z,9.14
2023-02-19T06:01:40.035Z,9.07
2023-02-19T06:04:09.963Z,9.14
2023-02-19T06:06:39.999Z,9.15
2023-02-19T06:09:13.390Z,9.12
2023-02-19T06:11:43.731Z,9.15
2023-02-19T06:14:16.243Z,9.19
2023-02-19T06:16:46.092Z,9.16
2023-02-19T06:19:15.970Z,9.15
2023-02-19T06:21:46.684Z,9.12
2023-02-19T06:24:19.201Z,9.26
2023-02-19T06:26:49.279Z,9.19
2023-02-19T06:29:19.944Z,9.18
2023-02-19T06:31:49.856Z,9.13
2023-02-19T06:34:19.767Z,9.07
2023-02-19T06:36:52.079Z,9.15
2023-02-19T06:39:24.506Z,9.07
2023-02-19T06:41:54.423Z,9.06
2023-02-19T06:44:24.264Z,9.07
2023-02-19T06:46:57.430Z,9.07
2023-02-19T06:49:27.273Z,9.09
2023-02-19T06:51:57.121Z,9.15
2023-02-19T06:54:29.612Z,9.11
2023-02-19T06:56:59.887Z,9.15
2023-02-19T06:59:30.203Z,9.13
2023-02-19T07:01:59.997Z,9.18
2023-02-19T07:04:29.917Z,9.20
2023-02-19T07:07:00.322Z,9.25
2023-02-19T07:09:32.947Z,9.23
2023-02-19T07:12:02.806Z,9.28
2023-02-19T07:14:32.867Z,9.33
2023-02-19T07:17:02.762Z,9.42
2023-02-19T07:19:32.583Z,9.42
2023-02-19T07:22:02.408Z,9.44
2023-02-19T07:24:34.830Z,9.45
2023-02-19T07:27:04.764Z,9.40
2023-02-19T07:29:34.611Z,9.42
2023-02-19T07:32:04.773Z,9.43
2023-02-19T07:34:34.664Z,9.52
2023-02-19T07:37:04.515Z,9.54
2023-02-19T07:39:36.990Z,9.47
2023-02-19T07:42:07.078Z,9.55
2023-02-19T07:44:36.965Z,9.55
2023-02-19T07:47:06.970Z,9.57
2023-02-19T07:49:37.107Z,9.53
2023-02-19T07:52:07.379Z,9.53
2023-02-19T07:54:39.835Z,9.48
2023-02-19T07:57:09.681Z,9.45
2023-02-19T07:59:39.543Z,9.42
2023-02-19T08:02:31.583Z,9.42
2023-02-19T08:05:01.461Z,9.43
2023-02-19T08:07:34.369Z,9.42
2023-02-19T08:10:20.171Z,9.37
2023-02-19T08:13:10.894Z,9.37
2023-02-19T08:15:40.714Z,9.38
2023-02-19T08:18:11.338Z,9.44
2023-02-19T08:20:41.535Z,9.47
2023-02-19T08:23:12.360Z,9.53
2023-02-19T08:25:44.928Z,9.58
2023-02-19T08:28:15.717Z,9.68
2023-02-19T08:30:47.564Z,9.74
2023-02-19T08:33:21.451Z,9.79
2023-02-19T08:35:51.373Z,9.83
2023-02-19T08:38:21.201Z,9.81
2023-02-19T08:40:53.704Z,9.92
2023-02-19T08:43:23.580Z,9.89
2023-02-19T08:45:57.104Z,9.91
2023-02-19T08:48:26.958Z,9.93
2023-02-19T08:50:58.255Z,9.99
2023-02-19T08:53:29.400Z,10.06
2023-02-19T08:56:02.508Z,10.03
2023-02-19T08:58:32.916Z,10.09
2023-02-19T09:01:02.938Z,10.05
2023-02-19T09:03:33.025Z,10.14
2023-02-19T09:06:02.880Z,10.10
2023-02-19T09:08:32.742Z,10.14
2023-02-19T09:11:07.742Z,10.15
2023-02-19T09:13:37.570Z,10.21
2023-02-19T09:16:08.378Z,10.21
2023-02-19T09:18:38.553Z,10.24
2023-02-19T09:21:09.732Z,10.18
2023-02-19T09:23:40.280Z,10.16
2023-02-19T09:26:14.121Z,10.21
2023-02-19T09:28:44.234Z,10.28
2023-02-19T09:31:17.081Z,10.26
2023-02-19T09:33:48.095Z,10.31
2023-02-19T09:36:19.627Z,10.37
2023-02-19T09:38:49.542Z,10.39
2023-02-19T09:41:32.651Z,10.35
2023-02-19T09:44:04.991Z,10.35
2023-02-19T09:46:39.931Z,10.29
2023-02-19T09:49:17.642Z,10.39
2023-02-19T09:51:53.084Z,10.32
2023-02-19T09:54:27.625Z,10.27
2023-02-19T09:57:04.682Z,10.35
2023-02-19T09:59:42.771Z,10.37
2023-02-19T10:02:18.825Z,10.40
2023-02-19T10:04:53.615Z,10.41
2023-02-19T10:07:27.702Z,10.51
2023-02-19T10:10:03.450Z,10.54
2023-02-19T10:12:36.028Z,10.52
2023-02-19T10:15:15.046Z,10.48
2023-02-19T10:17:45.055Z,10.49
2023-02-19T10:20:20.107Z,10.51
2023-02-19T10:22:50.108Z,10.61
2023-02-19T10:25:20.306Z,10.59
2023-02-19T10:27:52.883Z,10.64
2023-02-19T10:30:27.657Z,10.55
2023-02-19T10:33:03.763Z,10.54
2023-02-19T10:35:40.604Z,10.68
2023-02-19T10:38:10.929Z,10.64
2023-02-19T10:40:48.917Z,10.77
2023-02-19T10:43:33.051Z,10.83
2023-02-19T10:46:07.546Z,10.94
2023-02-19T10:48:43.624Z,11.04
2023-02-19T10:51:21.852Z,11.11
2023-02-19T10:53:54.148Z,11.19
2023-02-19T10:56:30.073Z,11.27
2023-02-19T10:59:18.858Z,11.37
2023-02-19T11:02:03.698Z,11.62
2023-02-19T11:04:38.167Z,11.58
2023-02-19T11:07:12.367Z,11.66
2023-02-19T11:09:45.654Z,11.69
2023-02-19T11:12:17.538Z,11.57
2023-02-19T11:14:50.071Z,11.51
2023-02-19T11:17:27.331Z,11.43
2023-02-19T11:20:01.101Z,11.48
2023-02-19T11:22:38.673Z,11.53
2023-02-19T11:25:25.895Z,11.93
2023-02-19T11:28:07.422Z,12.23
2023-02-19T11:30:43.162Z,11.85
2023-02-19T11:33:32.588Z,12.01
2023-02-19T11:36:30.450Z,12.12
2023-02-19T11:39:04.920Z,12.07
2023-02-19T11:41:59.722Z,12.01
2023-02-19T11:44:46.356Z,11.67
2023-02-19T11:47:54.315Z,11.84
2023-02-19T11:50:32.217Z,11.76
2023-02-19T11:53:18.723Z,12.07
2023-02-19T11:56:05.413Z,11.96
2023-02-19T11:59:03.030Z,11.86
2023-02-19T12:02:05.127Z,11.93
2023-02-19T12:05:06.451Z,11.91
2023-02-19T12:08:10.527Z,11.94
2023-02-19T12:10:59.952Z,11.91
2023-02-19T12:13:45.134Z,12.02
2023-02-19T12:16:30.504Z,12.04
2023-02-19T12:19:43.332Z,11.98
2023-02-19T12:22:31.968Z,12.09
2023-02-19T12:25:29.310Z,12.02
2023-02-19T12:28:18.549Z,11.77
2023-02-19T12:31:18.351Z,11.84
2023-02-19T12:34:19.728Z,12.08
2023-02-19T12:37:04.039Z,11.96
2023-02-19T12:39:57.519Z,11.90
2023-02-19T12:42:46.314Z,12.01
2023-02-19T12:45:23.978Z,11.75
2023-02-19T12:48:07.599Z,11.71
2023-02-19T12:50:40.217Z,11.56
2023-02-19T12:53:21.922Z,11.61
2023-02-19T12:55:57.143Z,11.60
2023-02-19T12:58:35.159Z,11.63
2023-02-19T13:01:08.531Z,11.75
2023-02-19T13:03:44.572Z,11.95
2023-02-19T13:06:57.590Z,11.95
2023-02-19T13:12:56.368Z,12.10
2023-02-19T13:15:46.429Z,12.06
2023-02-19T13:18:29.405Z,12.16
2023-02-19T13:21:52.614Z,12.06
2023-02-19T13:24:35.924Z,12.15
2023-02-19T13:27:41.681Z,12.19
2023-02-19T13:31:00.756Z,12.22
2023-02-19T13:34:05.429Z,12.03
2023-02-19T13:37:11.353Z,12.03
2023-02-19T13:40:03.289Z,12.03
2023-02-19T13:42:40.305Z,12.02
2023-02-19T13:45:40.539Z,11.94
2023-02-19T13:51:51.130Z,11.84
2023-02-19T13:54:27.971Z,11.78
2023-02-19T13:57:33.592Z,11.78
2023-02-19T14:00:04.054Z,11.72
2023-02-19T14:02:36.971Z,11.77
2023-02-19T14:05:14.358Z,11.81
2023-02-19T14:07:55.534Z,11.69
2023-02-19T14:10:57.769Z,11.78
2023-02-19T14:13:59.279Z,11.56
2023-02-19T14:16:35.107Z,11.65
2023-02-19T14:19:04.976Z,11.62
2023-02-19T14:21:43.459Z,11.55
2023-02-19T14:24:17.233Z,11.48
2023-02-19T14:26:47.651Z,11.46
2023-02-19T14:29:20.272Z,11.42
2023-02-19T14:31:50.355Z,11.51
2023-02-19T14:34:27.055Z,11.56
2023-02-19T14:37:02.710Z,11.54
2023-02-19T14:39:37.826Z,11.47
2023-02-19T14:42:15.349Z,11.43
2023-02-19T14:44:52.959Z,11.52
2023-02-19T14:47:27.287Z,11.52
2023-02-19T14:50:03.981Z,11.51
2023-02-19T14:52:44.445Z,11.55
2023-02-19T14:55:23.713Z,11.51
2023-02-19T14:57:57.896Z,11.36
2023-02-19T15:00:30.808Z,11.35
2023-02-19T15:03:02.698Z,11.33
2023-02-19T15:05:34.953Z,11.38
2023-02-19T15:08:14.228Z,11.46
2023-02-19T15:10:46.289Z,11.19
2023-02-19T15:13:27.739Z,11.28
2023-02-19T15:15:58.675Z,11.27
2023-02-19T15:18:35.728Z,11.15
2023-02-19T15:21:08.378Z,11.15
2023-02-19T15:23:41.863Z,11.15
2023-02-19T15:26:24.259Z,11.12
2023-02-19T15:29:02.187Z,11.02
2023-02-19T15:31:32.252Z,11.18
2023-02-19T15:34:02.254Z,11.20
2023-02-19T15:36:36.868Z,11.13
2023-02-19T15:39:09.441Z,11.07
2023-02-19T15:41:39.632Z,11.07
2023-02-19T15:44:37.276Z,11.04
2023-02-19T15:47:17.240Z,11.06
2023-02-19T15:49:57.224Z,10.96
2023-02-19T15:52:39.120Z,10.95
2023-02-19T15:55:27.794Z,11.09
2023-02-19T15:58:06.152Z,11.10
2023-02-19T16:00:44.399Z,10.97
2023-02-19T16:03:21.687Z,11.00
2023-02-19T16:06:02.516Z,11.03
2023-02-19T16:08:34.500Z,10.92
2023-02-19T16:11:10.726Z,10.89
2023-02-19T16:13:40.828Z,11.00
2023-02-19T16:16:21.510Z,10.95
2023-02-19T16:18:54.507Z,10.90
2023-02-19T16:21:27.407Z,10.77
2023-02-19T16:24:13.835Z,10.85
2023-02-19T16:26:48.467Z,10.90
2023-02-19T16:29:24.304Z,10.86
2023-02-19T16:31:57.745Z,10.82
2023-02-19T16:34:36.472Z,10.72
2023-02-19T16:37:06.659Z,10.72
2023-02-19T16:39:36.724Z,10.76
2023-02-19T16:42:19.362Z,10.81
2023-02-19T16:44:52.152Z,10.82
2023-02-19T16:47:32.820Z,10.72
2023-02-19T16:50:07.597Z,10.70
2023-02-19T16:52:39.313Z,10.74
2023-02-19T16:55:16.146Z,10.75
2023-02-19T16:57:48.857Z,10.72
2023-02-19T17:00:20.878Z,10.68
2023-02-19T17:02:53.855Z,10.73
2023-02-19T17:05:26.473Z,10.74
2023-02-19T17:07:56.604Z,10.74
2023-02-19T17:10:30.676Z,10.69
2023-02-19T17:13:03.296Z,10.61
2023-02-19T17:15:33.435Z,10.64
2023-02-19T17:18:03.468Z,10.60
2023-02-19T17:20:38.325Z,10.59
2023-02-19T17:23:08.430Z,10.68
2023-02-19T17:25:38.401Z,10.64
2023-02-19T17:28:11.156Z,10.62
2023-02-19T17:30:41.252Z,10.56
2023-02-19T17:33:11.336Z,10.70
2023-02-19T17:36:02.761Z,10.69
2023-02-19T17:38:55.204Z,10.62
2023-02-19T17:42:02.065Z,10.67
2023-02-19T17:45:13.223Z,10.56
2023-02-19T17:54:12.202Z,10.60
2023-02-19T17:56:47.809Z,10.56
2023-02-19T17:59:19.298Z,10.48
2023-02-19T18:01:55.234Z,10.52
2023-02-19T18:04:25.312Z,10.61
2023-02-19T18:06:55.967Z,10.57
2023-02-19T18:09:26.106Z,10.51
2023-02-19T18:11:55.980Z,10.57
2023-02-19T18:14:25.892Z,10.58
2023-02-19T18:16:58.349Z,10.58
2023-02-19T18:19:28.561Z,10.52
2023-02-19T18:21:58.475Z,10.67
2023-02-19T18:24:28.361Z,10.62
2023-02-19T18:26:58.427Z,10.59
2023-02-19T18:29:30.128Z,10.61
2023-02-19T18:32:02.680Z,10.53
2023-02-19T18:34:32.671Z,10.54
2023-02-19T18:37:02.562Z,10.61
2023-02-19T18:39:32.469Z,10.63
2023-02-19T18:42:03.000Z,10.58
2023-02-19T18:44:32.855Z,10.52
2023-02-19T18:47:05.441Z,10.54
2023-02-19T18:49:35.315Z,10.54
2023-02-19T18:52:05.334Z,10.39
2023-02-19T18:54:35.675Z,10.48
2023-02-19T18:57:05.620Z,10.46
2023-02-19T18:59:35.519Z,10.48
2023-02-19T19:02:09.437Z,10.45
2023-02-19T19:04:41.463Z,10.40
2023-02-19T19:07:12.418Z,10.39
2023-02-19T19:09:42.331Z,10.46
2023-02-19T19:12:12.207Z,10.42
2023-02-19T19:14:42.289Z,10.44
2023-02-19T19:17:14.838Z,10.46
2023-02-19T19:19:46.161Z,10.51
2023-02-19T19:22:16.680Z,10.49
2023-02-19T19:24:46.640Z,10.40
2023-02-19T19:27:16.558Z,10.37
2023-02-19T19:29:47.441Z,10.42
2023-02-19T19:32:19.946Z,10.32
2023-02-19T19:34:49.922Z,10.35
2023-02-19T19:37:19.852Z,10.25
2023-02-19T19:39:49.708Z,10.37
2023-02-19T19:42:19.565Z,10.37
2023-02-19T19:44:49.447Z,10.36
2023-02-19T19:47:22.376Z,10.40
2023-02-19T19:49:52.460Z,10.40
2023-02-19T19:52:22.467Z,10.40
2023-02-19T19:54:54.263Z,10.36
2023-02-19T19:57:24.350Z,10.32
2023-02-19T19:59:54.240Z,10.31
2023-02-19T20:02:26.847Z,10.34
2023-02-19T20:04:56.842Z,10.23
2023-02-19T20:07:28.466Z,10.30
2023-02-19T20:09:58.384Z,10.30
2023-02-19T20:12:28.256Z,10.31
2023-02-19T20:14:58.224Z,10.32
2023-02-19T20:17:30.774Z,10.31
2023-02-19T20:20:00.798Z,10.30
2023-02-19T20:22:30.693Z,10.39
2023-02-19T20:25:00.593Z,10.35
2023-02-19T20:27:30.554Z,10.35
2023-02-19T20:30:00.455Z,10.29
2023-02-19T20:32:32.897Z,10.10
2023-02-19T20:35:02.845Z,10.10
2023-02-19T20:37:32.810Z,10.14
2023-02-19T20:40:02.804Z,10.13
2023-02-19T20:42:32.776Z,10.10
2023-02-19T20:45:02.622Z,10.09
2023-02-19T20:47:35.114Z,10.04
2023-02-19T20:50:05.020Z,10.06
2023-02-19T20:52:34.885Z,10.14
2023-02-19T20:55:04.765Z,10.06
2023-02-19T20:57:34.759Z,10.18
2023-02-19T21:00:04.658Z,10.04
2023-02-19T21:02:37.378Z,9.98
2023-02-19T21:05:07.740Z,10.04
2023-02-19T21:07:37.611Z,10.12
2023-02-19T21:10:08.032Z,9.98
2023-02-19T21:12:38.053Z,10.04
2023-02-19T21:15:08.872Z,10.05
2023-02-19T21:17:41.301Z,9.93
2023-02-19T21:20:12.098Z,9.96
2023-02-19T21:22:41.971Z,9.93
2023-02-19T21:25:12.056Z,9.95
2023-02-19T21:27:42.050Z,9.97
2023-02-19T21:30:12.436Z,9.99
2023-02-19T21:32:45.018Z,10.03
2023-02-19T21:35:14.823Z,9.96
2023-02-19T21:37:45.994Z,10.02
2023-02-19T21:40:16.628Z,10.03
2023-02-19T21:42:46.528Z,9.94
2023-02-19T21:45:16.451Z,10.02
2023-02-19T21:47:52.116Z,9.99
2023-02-19T21:50:22.562Z,9.90
2023-02-19T21:52:52.722Z,9.91
2023-02-19T21:55:22.608Z,9.90
2023-02-19T21:57:52.538Z,9.90
2023-02-19T22:00:23.005Z,9.87
2023-02-19T22:02:55.455Z,9.90
2023-02-19T22:05:26.650Z,9.90
2023-02-19T22:07:58.299Z,9.91
2023-02-19T22:10:28.383Z,9.98
2023-02-19T22:12:58.207Z,9.92
2023-02-19T22:15:28.036Z,9.96
2023-02-19T22:18:00.518Z,9.99
2023-02-19T22:20:30.472Z,9.94
2023-02-19T22:23:00.339Z,9.96
2023-02-19T22:25:30.281Z,9.94
2023-02-19T22:28:00.331Z,9.92
2023-02-19T22:30:33.196Z,9.88
2023-02-19T22:33:06.544Z,9.82
2023-02-19T22:35:36.497Z,9.94
2023-02-19T22:38:06.466Z,9.94
2023-02-19T22:40:36.416Z,9.84
2023-02-19T22:43:06.415Z,9.83
2023-02-19T22:45:36.464Z,9.87
2023-02-19T22:48:09.733Z,9.88
2023-02-19T22:50:40.405Z,9.83
2023-02-19T22:53:10.206Z,9.77
2023-02-19T22:55:40.071Z,9.80
2023-02-19T22:58:09.939Z,9.78
2023-02-19T23:00:39.846Z,9.76
2023-02-19T23:03:12.261Z,9.75
2023-02-19T23:05:42.093Z,9.72
2023-02-19T23:08:14.340Z,9.62
2023-02-19T23:10:44.234Z,9.64
2023-02-19T23:13:14.153Z,9.50
2023-02-19T23:15:44.020Z,9.47
2023-02-19T23:18:16.470Z,9.41
2023-02-19T23:20:46.363Z,9.47
2023-02-19T23:23:16.259Z,9.44
2023-02-19T23:25:46.185Z,9.32
2023-02-19T23:28:16.134Z,9.29
2023-02-19T23:30:46.046Z,9.33
2023-02-19T23:33:18.632Z,9.28
2023-02-19T23:35:48.514Z,9.31
2023-02-19T23:38:18.452Z,9.32
2023-02-19T23:40:48.345Z,9.25
2023-02-19T23:43:18.265Z,9.23
2023-02-19T23:45:48.256Z,9.21
2023-02-19T23:48:20.791Z,9.24
2023-02-19T23:50:50.711Z,9.16
2023-02-19T23:53:20.691Z,8.99
2023-02-19T23:55:51.676Z,9.03
2023-02-19T23:58:21.854Z,9.08
